createdAt,value
2022-08-03T00:01:26.676Z,23.80
2022-08-03T00:03:53.833Z,23.70
2022-08-03T00:06:21.412Z,23.70
2022-08-03T00:08:48.579Z,23.70
2022-08-03T00:11:17.411Z,23.70
2022-08-03T00:13:44.586Z,23.70
2022-08-03T00:16:11.825Z,23.70
2022-08-03T00:18:39.479Z,23.70
2022-08-03T00:21:06.685Z,23.60
2022-08-03T00:23:51.552Z,23.60
2022-08-03T00:26:22.125Z,23.60
2022-08-03T00:28:49.813Z,23.60
2022-08-03T00:31:22.305Z,23.50
2022-08-03T00:34:04.395Z,23.50
2022-08-03T00:36:31.510Z,23.50
2022-08-03T00:38:58.626Z,23.50
2022-08-03T00:41:27.345Z,23.40
2022-08-03T00:43:54.416Z,23.40
2022-08-03T00:46:22.446Z,23.40
2022-08-03T00:48:49.871Z,23.50
2022-08-03T00:51:17.238Z,23.40
2022-08-03T00:53:45.482Z,23.50
2022-08-03T00:56:14.117Z,23.50
2022-08-03T00:58:45.083Z,23.40
2022-08-03T01:01:12.847Z,23.30
2022-08-03T01:03:40.986Z,23.30
2022-08-03T01:06:16.714Z,23.30
2022-08-03T01:08:48.639Z,23.20
2022-08-03T01:11:28.981Z,23.20
2022-08-03T01:14:18.792Z,23.30
2022-08-03T01:16:55.940Z,23.20
2022-08-03T01:19:45.677Z,23.20
2022-08-03T01:22:49.880Z,23.10
2022-08-03T01:25:28.532Z,23.20
2022-08-03T01:28:13.847Z,23.20
2022-08-03T01:30:45.860Z,23.10
2022-08-03T01:33:18.857Z,23.10
2022-08-03T01:35:50.482Z,23.10
2022-08-03T01:38:22.324Z,23.10
2022-08-03T01:40:53.986Z,23.10
2022-08-03T01:44:28.643Z,23.20
2022-08-03T01:46:14.737Z,23.10
2022-08-03T01:48:44.775Z,23.00
2022-08-03T01:51:12.998Z,23.00
2022-08-03T01:53:42.873Z,23.00
2022-08-03T01:56:10.774Z,23.00
2022-08-03T01:58:38.684Z,22.90
2022-08-03T02:01:07.003Z,22.90
2022-08-03T02:03:56.672Z,23.00
2022-08-03T02:07:01.437Z,23.00
2022-08-03T02:09:19.942Z,23.00
2022-08-03T02:11:48.018Z,23.00
2022-08-03T02:14:16.300Z,22.90
2022-08-03T02:16:45.768Z,23.00
2022-08-03T02:19:16.507Z,22.90
2022-08-03T02:21:55.920Z,22.80
2022-08-03T02:24:28.875Z,22.80
2022-08-03T02:26:56.616Z,22.80
2022-08-03T02:29:39.653Z,22.80
2022-08-03T02:32:11.748Z,22.80
2022-08-03T02:34:42.069Z,22.60
2022-08-03T02:37:11.580Z,22.70
2022-08-03T02:39:40.963Z,22.70
2022-08-03T02:42:12.036Z,22.70
2022-08-03T02:44:43.712Z,22.60
2022-08-03T02:47:13.202Z,22.60
2022-08-03T02:49:51.616Z,22.60
2022-08-03T02:52:21.403Z,22.60
2022-08-03T02:54:51.185Z,22.60
2022-08-03T02:57:19.960Z,22.70
2022-08-03T02:59:47.691Z,22.70
2022-08-03T03:02:16.935Z,22.50
2022-08-03T03:05:53.401Z,22.40
2022-08-03T03:07:39.788Z,22.50
2022-08-03T03:10:19.697Z,22.50
2022-08-03T03:12:48.315Z,22.30
2022-08-03T03:15:15.390Z,22.40
2022-08-03T03:17:43.558Z,22.30
2022-08-03T03:20:12.633Z,22.30
2022-08-03T03:22:41.265Z,22.40
2022-08-03T03:25:12.505Z,22.40
2022-08-03T03:27:39.928Z,22.40
2022-08-03T03:30:08.508Z,22.30
2022-08-03T03:32:36.953Z,22.30
2022-08-03T03:35:05.849Z,22.20
2022-08-03T03:37:34.358Z,22.10
2022-08-03T03:40:01.685Z,22.30
2022-08-03T03:42:28.836Z,22.40
2022-08-03T03:44:55.975Z,22.30
2022-08-03T03:47:32.825Z,22.40
2022-08-03T03:50:00.230Z,22.20
2022-08-03T03:52:27.502Z,22.30
2022-08-03T03:55:00.650Z,22.30
2022-08-03T03:57:28.332Z,22.30
2022-08-03T03:59:55.551Z,22.40
2022-08-03T04:02:22.663Z,22.50
2022-08-03T04:05:08.324Z,22.40
2022-08-03T04:08:04.927Z,22.40
2022-08-03T04:10:54.929Z,22.40
2022-08-03T04:13:22.935Z,22.40
2022-08-03T04:15:51.818Z,22.40
2022-08-03T04:18:19.795Z,22.50
2022-08-03T04:20:48.986Z,22.60
2022-08-03T04:23:18.980Z,22.50
2022-08-03T04:25:51.533Z,22.50
2022-08-03T04:28:31.310Z,22.70
2022-08-03T04:31:01.287Z,22.60
2022-08-03T04:33:32.427Z,22.70
2022-08-03T04:36:03.399Z,22.80
2022-08-03T04:38:35.995Z,23.00
2022-08-03T04:41:04.892Z,23.10
2022-08-03T04:43:33.623Z,23.10
2022-08-03T04:46:02.529Z,23.20
2022-08-03T04:48:29.889Z,23.30
2022-08-03T04:50:57.544Z,23.50
2022-08-03T04:53:24.661Z,23.70
2022-08-03T04:55:51.764Z,23.90
2022-08-03T04:58:20.254Z,24.00
2022-08-03T05:00:51.015Z,24.30
2022-08-03T05:03:20.226Z,24.70
2022-08-03T05:05:51.748Z,25.20
2022-08-03T05:08:20.636Z,25.60
2022-08-03T05:10:54.813Z,26.20
2022-08-03T05:13:23.265Z,26.70
2022-08-03T05:15:50.711Z,27.00
2022-08-03T05:18:17.877Z,27.00
2022-08-03T05:20:45.089Z,27.20
2022-08-03T05:23:12.328Z,27.30
2022-08-03T05:25:39.445Z,27.60
2022-08-03T05:28:06.611Z,27.90
2022-08-03T05:30:35.143Z,28.00
2022-08-03T05:33:03.560Z,28.00
2022-08-03T05:35:56.123Z,28.50
2022-08-03T05:38:23.959Z,29.40
2022-08-03T05:41:22.065Z,30.10
2022-08-03T05:43:44.973Z,30.60
2022-08-03T05:46:14.577Z,31.20
2022-08-03T05:48:43.460Z,31.60
2022-08-03T05:51:13.875Z,32.10
2022-08-03T05:53:41.635Z,32.70
2022-08-03T05:56:14.220Z,33.10
2022-08-03T05:58:52.578Z,33.10
2022-08-03T06:01:22.387Z,32.80
2022-08-03T06:03:50.399Z,32.40
2022-08-03T06:06:17.627Z,32.40
2022-08-03T06:08:45.446Z,32.80
2022-08-03T06:11:12.929Z,33.00
2022-08-03T06:13:40.440Z,32.70
2022-08-03T06:16:18.554Z,32.50
2022-08-03T06:18:47.983Z,32.60
2022-08-03T06:21:16.386Z,32.80
2022-08-03T06:23:54.460Z,33.50
2022-08-03T06:26:27.624Z,34.00
2022-08-03T06:28:55.541Z,35.00
2022-08-03T06:31:26.107Z,35.70
2022-08-03T06:34:34.182Z,35.60
2022-08-03T06:36:52.497Z,36.10
2022-08-03T06:39:20.356Z,36.10
2022-08-03T06:41:47.769Z,36.90
2022-08-03T06:44:15.712Z,37.70
2022-08-03T06:46:43.513Z,38.30
2022-08-03T06:49:12.319Z,39.40
2022-08-03T06:52:03.081Z,40.40
2022-08-03T06:54:26.737Z,41.00
2022-08-03T06:56:54.514Z,41.60
2022-08-03T07:00:10.872Z,41.20
2022-08-03T07:02:09.782Z,41.00
2022-08-03T07:04:38.305Z,41.40
2022-08-03T07:07:05.648Z,42.10
2022-08-03T07:09:32.863Z,41.60
2022-08-03T07:12:02.415Z,41.40
2022-08-03T07:14:29.675Z,41.70
2022-08-03T07:16:58.426Z,41.40
2022-08-03T07:19:26.048Z,41.80
2022-08-03T07:21:54.710Z,42.30
2022-08-03T07:24:30.389Z,43.20
2022-08-03T07:26:57.715Z,44.20
2022-08-03T07:29:25.225Z,44.20
2022-08-03T07:31:52.634Z,42.60
2022-08-03T07:34:19.765Z,43.00
2022-08-03T07:36:47.155Z,42.70
2022-08-03T07:39:18.028Z,42.10
2022-08-03T07:41:45.817Z,43.50
2022-08-03T07:44:13.151Z,44.30
2022-08-03T07:46:40.896Z,44.40
2022-08-03T07:49:08.080Z,45.10
2022-08-03T07:51:35.614Z,45.70
2022-08-03T07:54:03.340Z,45.40
2022-08-03T07:56:32.177Z,45.70
2022-08-03T07:58:59.983Z,45.10
2022-08-03T08:01:27.674Z,43.30
2022-08-03T08:03:58.876Z,43.30
2022-08-03T08:06:26.233Z,44.10
2022-08-03T08:08:55.152Z,44.60
2022-08-03T08:11:22.476Z,45.20
2022-08-03T08:13:51.057Z,45.70
2022-08-03T08:16:18.299Z,45.20
2022-08-03T08:18:45.368Z,45.00
2022-08-03T08:21:12.689Z,45.00
2022-08-03T08:23:41.899Z,44.40
2022-08-03T08:26:11.078Z,43.70
2022-08-03T08:28:38.264Z,42.60
2022-08-03T08:31:07.038Z,41.80
2022-08-03T08:34:02.776Z,41.00
2022-08-03T08:36:22.381Z,40.50
2022-08-03T08:38:49.610Z,39.70
2022-08-03T08:41:17.354Z,38.90
2022-08-03T08:43:44.512Z,38.50
2022-08-03T08:46:23.249Z,37.60
2022-08-03T08:48:52.774Z,37.00
2022-08-03T08:51:21.848Z,36.50
2022-08-03T08:53:52.219Z,36.20
2022-08-03T08:56:22.922Z,35.60
2022-08-03T08:58:53.244Z,34.80
2022-08-03T09:01:22.016Z,34.70
2022-08-03T09:03:50.090Z,34.30
2022-08-03T09:06:17.475Z,34.10
2022-08-03T09:08:44.696Z,33.90
2022-08-03T09:11:12.314Z,33.90
2022-08-03T09:13:40.171Z,34.00
2022-08-03T09:16:12.519Z,33.60
2022-08-03T09:18:41.937Z,33.80
2022-08-03T09:21:32.578Z,34.00
2022-08-03T09:24:03.664Z,34.50
2022-08-03T09:26:33.386Z,35.10
2022-08-03T09:29:05.994Z,35.60
2022-08-03T09:31:42.989Z,36.30
2022-08-03T09:34:14.233Z,36.80
2022-08-03T09:36:46.832Z,37.20
2022-08-03T09:39:16.163Z,37.40
2022-08-03T09:41:45.971Z,37.40
2022-08-03T09:44:24.143Z,38.20
2022-08-03T09:46:54.796Z,38.30
2022-08-03T09:49:24.450Z,38.70
2022-08-03T09:52:33.144Z,39.30
2022-08-03T09:54:39.622Z,39.20
2022-08-03T09:57:06.991Z,39.20
2022-08-03T09:59:39.151Z,39.60
2022-08-03T10:02:21.768Z,39.60
2022-08-03T10:04:52.719Z,39.40
2022-08-03T10:07:21.416Z,40.10
2022-08-03T10:09:56.740Z,41.00
2022-08-03T10:12:24.805Z,42.20
2022-08-03T10:14:52.869Z,42.60
2022-08-03T10:17:21.116Z,43.00
2022-08-03T10:19:50.395Z,43.10
2022-08-03T10:22:21.759Z,43.00
2022-08-03T10:24:59.433Z,42.70
2022-08-03T10:27:31.702Z,42.30
2022-08-03T10:30:03.897Z,42.50
2022-08-03T10:32:34.398Z,41.90
2022-08-03T10:35:13.024Z,41.80
2022-08-03T10:37:57.223Z,41.60
2022-08-03T10:43:19.768Z,42.60
2022-08-03T10:45:47.220Z,42.70
2022-08-03T10:48:15.203Z,43.30
2022-08-03T10:50:44.350Z,43.40
2022-08-03T10:53:11.705Z,42.80
2022-08-03T10:56:05.588Z,42.40
2022-08-03T10:58:57.212Z,42.80
2022-08-03T11:01:58.918Z,42.60
2022-08-03T11:04:27.151Z,42.30
2022-08-03T11:07:23.783Z,42.30
2022-08-03T11:09:52.914Z,42.80
2022-08-03T11:12:29.972Z,44.30
2022-08-03T11:15:01.135Z,44.70
2022-08-03T11:17:28.510Z,45.50
2022-08-03T11:19:57.662Z,44.40
2022-08-03T11:22:48.315Z,44.40
2022-08-03T11:25:55.075Z,44.90
2022-08-03T11:28:25.919Z,45.30
2022-08-03T11:30:53.890Z,44.50
2022-08-03T11:33:31.464Z,45.60
2022-08-03T11:36:00.167Z,45.70
2022-08-03T11:38:28.744Z,45.20
2022-08-03T11:40:55.853Z,44.50
2022-08-03T11:43:45.512Z,44.50
2022-08-03T11:46:28.591Z,44.30
2022-08-03T11:49:09.509Z,43.90
2022-08-03T11:51:39.925Z,44.10
2022-08-03T11:54:08.712Z,44.40
2022-08-03T11:56:45.608Z,44.20
2022-08-03T11:59:20.423Z,44.20
2022-08-03T12:01:48.728Z,44.60
2022-08-03T12:04:16.406Z,44.80
2022-08-03T12:06:59.214Z,45.30
2022-08-03T12:09:27.842Z,44.80
2022-08-03T12:12:00.553Z,44.90
2022-08-03T12:14:50.547Z,44.30
2022-08-03T12:17:18.015Z,43.70
2022-08-03T12:19:45.691Z,43.80
2022-08-03T12:22:13.762Z,43.80
2022-08-03T12:24:43.055Z,43.30
2022-08-03T12:27:10.217Z,43.30
2022-08-03T12:29:37.840Z,43.40
2022-08-03T12:32:05.505Z,44.10
2022-08-03T12:34:48.848Z,43.90
2022-08-03T12:37:22.645Z,43.90
2022-08-03T12:40:02.743Z,43.70
2022-08-03T12:42:35.699Z,43.50
2022-08-03T12:45:21.856Z,43.10
2022-08-03T12:47:54.019Z,42.70
2022-08-03T12:50:26.643Z,42.60
2022-08-03T12:52:54.699Z,42.30
2022-08-03T12:55:23.692Z,42.00
2022-08-03T12:57:51.154Z,41.80
2022-08-03T13:00:28.594Z,41.60
2022-08-03T13:03:38.558Z,41.40
2022-08-03T13:05:49.469Z,41.50
2022-08-03T13:08:20.236Z,41.40
2022-08-03T13:10:49.399Z,41.20
2022-08-03T13:13:16.963Z,41.20
2022-08-03T13:15:47.675Z,41.00
2022-08-03T13:18:17.373Z,40.80
2022-08-03T13:20:44.961Z,40.90
2022-08-03T13:23:15.509Z,41.00
2022-08-03T13:25:55.744Z,41.00
2022-08-03T13:28:23.509Z,41.10
2022-08-03T13:30:51.621Z,41.10
2022-08-03T13:33:18.837Z,41.10
2022-08-03T13:35:46.080Z,41.10
2022-08-03T13:38:13.352Z,41.10
2022-08-03T13:40:42.730Z,41.20
2022-08-03T13:43:14.520Z,41.50
2022-08-03T13:45:44.482Z,41.60
2022-08-03T13:48:14.676Z,41.50
2022-08-03T13:51:11.575Z,40.90
2022-08-03T13:53:52.252Z,40.80
2022-08-03T13:56:19.701Z,40.90
2022-08-03T13:58:48.204Z,40.90
2022-08-03T14:01:15.668Z,41.10
2022-08-03T14:03:43.120Z,41.30
2022-08-03T14:06:11.325Z,41.40
2022-08-03T14:08:38.653Z,41.90
2022-08-03T14:11:06.125Z,42.10
2022-08-03T14:13:33.273Z,42.10
2022-08-03T14:16:01.809Z,41.80
2022-08-03T14:18:33.712Z,41.80
2022-08-03T14:21:05.761Z,41.70
2022-08-03T14:23:34.153Z,41.80
2022-08-03T14:26:01.798Z,41.70
2022-08-03T14:28:28.938Z,41.70
2022-08-03T14:30:56.218Z,41.30
2022-08-03T14:33:25.549Z,41.30
2022-08-03T14:35:53.369Z,41.50
2022-08-03T14:38:21.040Z,41.40
2022-08-03T14:40:49.003Z,41.40
2022-08-03T14:43:22.634Z,41.70
2022-08-03T14:45:53.653Z,41.70
2022-08-03T14:50:31.788Z,41.40
2022-08-03T14:51:10.345Z,41.50
2022-08-03T14:53:37.634Z,41.20
2022-08-03T14:56:10.039Z,41.10
2022-08-03T14:58:38.095Z,40.70
2022-08-03T15:02:05.604Z,40.60
2022-08-03T15:03:52.478Z,40.20
2022-08-03T15:06:21.165Z,39.90
2022-08-03T15:09:06.245Z,39.90
2022-08-03T15:11:37.065Z,39.90
2022-08-03T15:14:08.968Z,39.80
2022-08-03T15:16:36.846Z,39.80
2022-08-03T15:19:05.005Z,40.10
2022-08-03T15:21:53.851Z,40.10
2022-08-03T15:24:23.803Z,40.30
2022-08-03T15:26:54.364Z,39.60
2022-08-03T15:30:07.476Z,39.90
2022-08-03T15:32:09.621Z,39.80
2022-08-03T15:34:37.063Z,39.80
2022-08-03T15:37:16.559Z,39.80
2022-08-03T15:39:59.009Z,39.80
2022-08-03T15:42:27.956Z,39.70
2022-08-03T15:44:55.672Z,40.10
2022-08-03T15:47:23.133Z,40.50
2022-08-03T15:49:50.333Z,40.80
2022-08-03T15:52:18.815Z,40.70
2022-08-03T15:54:45.976Z,40.80
2022-08-03T15:57:13.193Z,40.60
2022-08-03T15:59:40.317Z,40.20
2022-08-03T16:02:07.648Z,39.80
2022-08-03T16:04:34.886Z,39.80
2022-08-03T16:07:02.270Z,39.90
2022-08-03T16:09:42.450Z,40.10
2022-08-03T16:12:15.658Z,39.60
2022-08-03T16:14:51.743Z,39.70
2022-08-03T16:17:20.367Z,40.00
2022-08-03T16:19:47.798Z,40.10
2022-08-03T16:22:15.074Z,40.20
2022-08-03T16:24:44.210Z,39.90
2022-08-03T16:27:37.208Z,39.80
2022-08-03T16:29:59.075Z,39.40
2022-08-03T16:32:26.448Z,39.30
2022-08-03T16:34:53.527Z,39.40
2022-08-03T16:37:38.298Z,38.80
2022-08-03T16:40:17.735Z,38.60
2022-08-03T16:42:46.564Z,38.70
2022-08-03T16:45:14.043Z,38.80
2022-08-03T16:47:41.313Z,38.90
2022-08-03T16:50:15.819Z,38.90
2022-08-03T16:52:47.413Z,39.00
2022-08-03T16:55:42.933Z,39.00
2022-08-03T16:58:05.531Z,39.10
2022-08-03T17:00:41.606Z,39.00
2022-08-03T17:03:20.671Z,38.90
2022-08-03T17:05:52.324Z,39.00
2022-08-03T17:08:27.308Z,38.70
2022-08-03T17:10:57.041Z,38.40
2022-08-03T17:13:38.910Z,38.40
2022-08-03T17:16:08.715Z,38.40
2022-08-03T17:18:42.179Z,38.30
2022-08-03T17:21:15.919Z,38.10
2022-08-03T17:23:50.415Z,37.90
2022-08-03T17:26:21.985Z,37.80
2022-08-03T17:28:57.278Z,37.60
2022-08-03T17:31:31.409Z,37.50
2022-08-03T17:34:00.699Z,37.30
2022-08-03T17:36:47.567Z,37.10
2022-08-03T17:39:16.962Z,36.90
2022-08-03T17:41:50.034Z,36.70
2022-08-03T17:44:33.090Z,36.40
2022-08-03T17:47:06.702Z,36.40
2022-08-03T17:49:40.132Z,36.10
2022-08-03T17:52:17.810Z,35.90
2022-08-03T17:55:55.496Z,35.60
2022-08-03T17:58:02.101Z,35.40
2022-08-03T18:00:51.638Z,35.20
2022-08-03T18:03:24.845Z,35.00
2022-08-03T18:06:10.724Z,34.90
2022-08-03T18:08:46.309Z,34.50
2022-08-03T18:11:16.989Z,34.40
2022-08-03T18:13:58.222Z,33.80
2022-08-03T18:16:34.277Z,33.50
2022-08-03T18:19:14.469Z,33.20
2022-08-03T18:22:03.445Z,33.10
2022-08-03T18:24:31.122Z,32.60
2022-08-03T18:27:02.435Z,32.30
2022-08-03T18:29:33.642Z,31.90
2022-08-03T18:32:03.925Z,32.00
2022-08-03T18:34:34.527Z,31.90
2022-08-03T18:37:04.485Z,31.80
2022-08-03T18:39:49.559Z,31.80
2022-08-03T18:42:19.519Z,31.80
2022-08-03T18:44:54.425Z,31.80
2022-08-03T18:47:50.601Z,31.60
2022-08-03T18:50:28.532Z,31.70
2022-08-03T18:53:15.581Z,31.60
2022-08-03T18:55:59.343Z,31.50
2022-08-03T18:58:35.488Z,31.60
2022-08-03T19:01:59.622Z,31.50
2022-08-03T19:04:09.406Z,31.50
2022-08-03T19:06:44.709Z,31.30
2022-08-03T19:09:20.013Z,31.00
2022-08-03T19:12:13.955Z,31.10
2022-08-03T19:14:45.924Z,31.10
2022-08-03T19:17:14.754Z,31.00
2022-08-03T19:19:51.108Z,31.10
2022-08-03T19:22:21.459Z,31.10
2022-08-03T19:24:52.061Z,31.10
2022-08-03T19:27:26.803Z,31.10
2022-08-03T19:29:59.617Z,31.00
2022-08-03T19:32:30.823Z,31.00
2022-08-03T19:34:59.995Z,31.00
2022-08-03T19:37:38.379Z,30.90
2022-08-03T19:40:10.872Z,30.80
2022-08-03T19:42:43.228Z,30.70
2022-08-03T19:45:14.570Z,30.60
2022-08-03T19:47:47.467Z,30.50
2022-08-03T19:50:18.360Z,30.40
2022-08-03T19:52:47.839Z,30.30
2022-08-03T19:55:17.292Z,30.20
2022-08-03T19:57:49.589Z,30.10
2022-08-03T20:00:19.707Z,30.00
2022-08-03T20:02:50.774Z,30.00
2022-08-03T20:05:18.645Z,29.90
2022-08-03T20:07:48.067Z,29.80
2022-08-03T20:10:16.200Z,29.80
2022-08-03T20:12:44.534Z,29.70
2022-08-03T20:15:12.165Z,29.60
2022-08-03T20:20:30.396Z,29.50
2022-08-03T20:22:59.535Z,29.40
2022-08-03T20:25:37.959Z,29.30
2022-08-03T20:28:14.004Z,29.20
2022-08-03T20:30:59.888Z,29.20
2022-08-03T20:33:37.749Z,29.10
2022-08-03T20:36:17.705Z,29.10
2022-08-03T20:38:47.371Z,29.00
2022-08-03T20:41:14.853Z,28.90
2022-08-03T20:43:42.081Z,28.80
2022-08-03T20:48:58.982Z,28.60
2022-08-03T20:51:49.104Z,28.50
2022-08-03T20:54:28.690Z,28.40
2022-08-03T20:56:58.571Z,28.30
2022-08-03T20:59:35.019Z,28.30
2022-08-03T21:02:06.096Z,28.20
2022-08-03T21:04:33.382Z,28.10
2022-08-03T21:07:09.818Z,28.10
2022-08-03T21:09:52.096Z,28.00
2022-08-03T21:12:29.779Z,27.90
2022-08-03T21:13:07.420Z,28.70
2022-08-03T21:13:09.191Z,29.60
2022-08-03T21:15:01.992Z,27.80
2022-08-03T21:17:40.678Z,27.70
2022-08-03T21:20:12.683Z,27.70
2022-08-03T21:22:44.236Z,27.60
2022-08-03T21:25:15.150Z,27.60
2022-08-03T21:27:42.823Z,27.60
2022-08-03T21:30:11.778Z,27.60
2022-08-03T21:32:40.260Z,27.60
2022-08-03T21:35:10.580Z,27.70
2022-08-03T21:37:40.539Z,27.60
2022-08-03T21:40:11.981Z,27.60
2022-08-03T21:42:39.735Z,27.60
2022-08-03T21:45:10.252Z,27.50
2022-08-03T21:47:41.322Z,27.50
2022-08-03T21:50:10.692Z,27.40
2022-08-03T21:52:42.987Z,27.40
2022-08-03T21:55:20.579Z,27.30
2022-08-03T21:57:54.763Z,27.20
2022-08-03T22:00:23.328Z,27.10
2022-08-03T22:02:54.771Z,27.10
2022-08-03T22:05:42.644Z,27.00
2022-08-03T22:08:13.450Z,27.00
2022-08-03T22:10:43.109Z,26.90
2022-08-03T22:13:10.677Z,26.90
2022-08-03T22:15:37.866Z,26.90
2022-08-03T22:18:05.453Z,26.80
2022-08-03T22:20:32.636Z,26.80
2022-08-03T22:23:03.009Z,26.70
2022-08-03T22:25:33.708Z,26.60
2022-08-03T22:28:02.715Z,26.60
2022-08-03T22:30:31.753Z,26.60
2022-08-03T22:33:01.194Z,26.60
2022-08-03T22:35:28.515Z,26.60
2022-08-03T22:37:57.774Z,26.70
2022-08-03T22:40:26.531Z,26.60
2022-08-03T22:42:55.621Z,26.60
2022-08-03T22:46:07.356Z,26.50
2022-08-03T22:48:11.425Z,26.50
2022-08-03T22:50:39.352Z,26.40
2022-08-03T22:53:07.512Z,26.30
2022-08-03T22:55:35.349Z,26.30
2022-08-03T22:58:03.875Z,26.30
2022-08-03T23:00:30.941Z,26.30
2022-08-03T23:03:02.088Z,26.30
2022-08-03T23:06:01.645Z,26.30
2022-08-03T23:08:22.853Z,26.40
2022-08-03T23:10:50.289Z,26.30
2022-08-03T23:13:19.867Z,26.40
2022-08-03T23:15:51.169Z,26.30
2022-08-03T23:18:20.853Z,26.20
2022-08-03T23:20:51.609Z,26.30
2022-08-03T23:23:20.024Z,26.30
2022-08-03T23:25:49.822Z,26.20
2022-08-03T23:28:18.712Z,26.20
2022-08-03T23:30:47.452Z,26.10
2022-08-03T23:33:16.395Z,26.10
2022-08-03T23:36:29.421Z,26.00
2022-08-03T23:38:49.245Z,25.80
2022-08-03T23:41:18.561Z,25.70
2022-08-03T23:43:53.812Z,25.70
2022-08-03T23:46:21.764Z,25.60
2022-08-03T23:48:49.458Z,25.50
2022-08-03T23:51:23.608Z,25.60
2022-08-03T23:54:02.118Z,25.60
2022-08-03T23:56:36.692Z,25.60
2022-08-03T23:59:13.072Z,25.40
